sensor_id;sensor_type;location;lat;lon;timestamp;temperature;humidity
22984;DHT22;11658;48.908;9.140;2023-01-29T06:01:32;-0.90;99.90
22984;DHT22;11658;48.908;9.140;2023-01-29T06:03:57;1.00;99.90
22984;DHT22;11658;48.908;9.140;2023-01-29T06:06:23;-0.20;99.90
22984;DHT22;11658;48.908;9.140;2023-01-29T06:08:49;0.70;99.90
22984;DHT22;11658;48.908;9.140;2023-01-29T06:11:15;-1.10;99.90
22984;DHT22;11658;48.908;9.140;2023-01-29T06:13:43;-1.10;99.90
22984;DHT22;11658;48.908;9.140;2023-01-29T06:16:10;0.80;99.90
22984;DHT22;11658;48.908;9.140;2023-01-29T06:18:37;-1.40;99.90
22984;DHT22;11658;48.908;9.140;2023-01-29T06:21:12;-0.50;99.90
22984;DHT22;11658;48.908;9.140;2023-01-29T06:23:38;0.00;99.90
22984;DHT22;11658;48.908;9.140;2023-01-29T06:26:10;0.90;99.90
22984;DHT22;11658;48.908;9.140;2023-01-29T06:28:38;-1.70;99.90
22984;DHT22;11658;48.908;9.140;2023-01-29T06:31:05;1.40;99.90
22984;DHT22;11658;48.908;9.140;2023-01-29T06:33:33;-1.70;99.90
22984;DHT22;11658;48.908;9.140;2023-01-29T06:36:01;1.50;99.90
22984;DHT22;11658;48.908;9.140;2023-01-29T06:38:28;-1.90;99.90
22984;DHT22;11658;48.908;9.140;2023-01-29T06:40:55;-0.10;99.90
22984;DHT22;11658;48.908;9.140;2023-01-29T06:43:22;1.50;99.90
22984;DHT22;11658;48.908;9.140;2023-01-29T06:48:13;1.00;99.90
22984;DHT22;11658;48.908;9.140;2023-01-29T06:50:42;1.00;99.90
22984;DHT22;11658;48.908;9.140;2023-01-29T06:53:08;-2.20;99.90
22984;DHT22;11658;48.908;9.140;2023-01-29T06:55:34;0.10;99.90
22984;DHT22;11658;48.908;9.140;2023-01-29T06:58:07;1.60;99.90
22984;DHT22;11658;48.908;9.140;2023-01-29T07:00:33;-0.80;99.90
22984;DHT22;11658;48.908;9.140;2023-01-29T07:02:59;0.80;99.90
22984;DHT22;11658;48.908;9.140;2023-01-29T07:05:25;-0.80;99.90
22984;DHT22;11658;48.908;9.140;2023-01-29T07:07:51;0.20;99.90
22984;DHT22;11658;48.908;9.140;2023-01-29T07:10:17;1.70;99.90
22984;DHT22;11658;48.908;9.140;2023-01-29T07:12:43;-0.30;99.90
22984;DHT22;11658;48.908;9.140;2023-01-29T07:15:09;1.20;99.90
22984;DHT22;11658;48.908;9.140;2023-01-29T07:17:37;-0.40;99.90
22984;DHT22;11658;48.908;9.140;2023-01-29T07:20:03;1.20;99.90
22984;DHT22;11658;48.908;9.140;2023-01-29T07:22:30;-0.30;99.90
22984;DHT22;11658;48.908;9.140;2023-01-29T07:24:56;-0.20;99.90
22984;DHT22;11658;48.908;9.140;2023-01-29T07:27:22;1.50;99.90
22984;DHT22;11658;48.908;9.140;2023-01-29T07:29:48;0.90;99.90
22984;DHT22;11658;48.908;9.140;2023-01-29T07:32:13;-0.40;99.90
22984;DHT22;11658;48.908;9.140;2023-01-29T07:34:39;2.10;99.90
22984;DHT22;11658;48.908;9.140;2023-01-29T07:37:04;0.70;99.90
22984;DHT22;11658;48.908;9.140;2023-01-29T07:39:31;1.60;99.90
22984;DHT22;11658;48.908;9.140;2023-01-29T07:41:56;1.10;99.90
22984;DHT22;11658;48.908;9.140;2023-01-29T07:44:25;-1.50;99.90
22984;DHT22;11658;48.908;9.140;2023-01-29T07:46:52;0.70;99.90
22984;DHT22;11658;48.908;9.140;2023-01-29T07:49:24;-0.30;99.90
22984;DHT22;11658;48.908;9.140;2023-01-29T07:52:15;-0.50;99.90
22984;DHT22;11658;48.908;9.140;2023-01-29T07:54:41;1.20;99.90
22984;DHT22;11658;48.908;9.140;2023-01-29T07:57:07;1.10;99.90
22984;DHT22;11658;48.908;9.140;2023-01-29T07:59:47;1.60;99.90
22984;DHT22;11658;48.908;9.140;2023-01-29T08:02:19;0.00;99.90
22984;DHT22;11658;48.908;9.140;2023-01-29T08:05:13;0.50;99.90
22984;DHT22;11658;48.908;9.140;2023-01-29T08:07:39;0.50;99.90
22984;DHT22;11658;48.908;9.140;2023-01-29T08:10:05;3.00;99.90
22984;DHT22;11658;48.908;9.140;2023-01-29T08:12:30;0.20;99.90
22984;DHT22;11658;48.908;9.140;2023-01-29T08:14:56;0.20;99.90
22984;DHT22;11658;48.908;9.140;2023-01-29T08:17:22;0.90;99.90
22984;DHT22;11658;48.908;9.140;2023-01-29T08:19:47;0.20;99.90
22984;DHT22;11658;48.908;9.140;2023-01-29T08:22:13;0.10;99.90
22984;DHT22;11658;48.908;9.140;2023-01-29T08:24:41;0.20;99.90
22984;DHT22;11658;48.908;9.140;2023-01-29T08:27:07;0.30;99.90
22984;DHT22;11658;48.908;9.140;2023-01-29T08:29:32;0.40;99.90
22984;DHT22;11658;48.908;9.140;2023-01-29T08:31:58;0.60;99.90
22984;DHT22;11658;48.908;9.140;2023-01-29T08:34:25;0.70;99.90
22984;DHT22;11658;48.908;9.140;2023-01-29T08:36:50;0.70;99.90
22984;DHT22;11658;48.908;9.140;2023-01-29T08:39:17;0.70;99.90
22984;DHT22;11658;48.908;9.140;2023-01-29T08:41:43;0.70;99.90
22984;DHT22;11658;48.908;9.140;2023-01-29T08:44:08;0.80;99.90
22984;DHT22;11658;48.908;9.140;2023-01-29T08:46:37;1.00;99.90
22984;DHT22;11658;48.908;9.140;2023-01-29T08:49:05;0.80;99.90
22984;DHT22;11658;48.908;9.140;2023-01-29T08:51:30;0.70;99.90
22984;DHT22;11658;48.908;9.140;2023-01-29T08:53:56;0.50;99.90
22984;DHT22;11658;48.908;9.140;2023-01-29T08:56:24;0.50;99.90
22984;DHT22;11658;48.908;9.140;2023-01-29T08:58:49;0.20;99.90
22984;DHT22;11658;48.908;9.140;2023-01-29T09:01:15;0.10;99.90
22984;DHT22;11658;48.908;9.140;2023-01-29T09:03:41;0.10;99.90
22984;DHT22;11658;48.908;9.140;2023-01-29T09:06:12;0.30;99.90
22984;DHT22;11658;48.908;9.140;2023-01-29T09:08:38;0.50;99.90
22984;DHT22;11658;48.908;9.140;2023-01-29T09:11:04;0.70;99.90
22984;DHT22;11658;48.908;9.140;2023-01-29T09:13:29;0.80;99.90
22984;DHT22;11658;48.908;9.140;2023-01-29T09:15:59;0.90;99.90
22984;DHT22;11658;48.908;9.140;2023-01-29T09:18:25;1.10;99.90
22984;DHT22;11658;48.908;9.140;2023-01-29T09:20:52;1.20;99.90
22984;DHT22;11658;48.908;9.140;2023-01-29T09:23:18;1.20;99.90
22984;DHT22;11658;48.908;9.140;2023-01-29T09:25:43;1.30;99.90
22984;DHT22;11658;48.908;9.140;2023-01-29T09:28:09;1.40;99.90
22984;DHT22;11658;48.908;9.140;2023-01-29T09:30:35;1.30;99.90
22984;DHT22;11658;48.908;9.140;2023-01-29T09:33:03;1.40;99.90
22984;DHT22;11658;48.908;9.140;2023-01-29T09:35:29;1.60;99.90
22984;DHT22;11658;48.908;9.140;2023-01-29T09:37:55;1.50;99.90
22984;DHT22;11658;48.908;9.140;2023-01-29T09:40:29;1.30;99.90
22984;DHT22;11658;48.908;9.140;2023-01-29T09:43:05;1.30;99.90
22984;DHT22;11658;48.908;9.140;2023-01-29T09:45:31;1.50;99.90
22984;DHT22;11658;48.908;9.140;2023-01-29T09:48:02;1.80;99.90
22984;DHT22;11658;48.908;9.140;2023-01-29T09:50:36;2.10;99.90
22984;DHT22;11658;48.908;9.140;2023-01-29T09:53:19;2.30;99.90
22984;DHT22;11658;48.908;9.140;2023-01-29T09:55:50;2.30;99.90
22984;DHT22;11658;48.908;9.140;2023-01-29T09:58:31;2.50;99.90
22984;DHT22;11658;48.908;9.140;2023-01-29T10:15:44;3.90;99.90
22984;DHT22;11658;48.908;9.140;2023-01-29T10:21:12;3.50;99.90
22984;DHT22;11658;48.908;9.140;2023-01-29T10:26:26;3.90;99.90
22984;DHT22;11658;48.908;9.140;2023-01-29T10:28:55;3.70;99.90
22984;DHT22;11658;48.908;9.140;2023-01-29T10:31:31;3.30;99.90
22984;DHT22;11658;48.908;9.140;2023-01-29T10:34:13;2.70;99.90
22984;DHT22;11658;48.908;9.140;2023-01-29T10:36:47;2.70;99.90
22984;DHT22;11658;48.908;9.140;2023-01-29T10:39:17;3.10;99.90
22984;DHT22;11658;48.908;9.140;2023-01-29T10:41:57;3.30;99.90
22984;DHT22;11658;48.908;9.140;2023-01-29T10:47:29;3.30;99.90
22984;DHT22;11658;48.908;9.140;2023-01-29T10:50:19;2.90;99.90
22984;DHT22;11658;48.908;9.140;2023-01-29T11:00:58;2.20;99.90
22984;DHT22;11658;48.908;9.140;2023-01-29T11:03:26;2.40;99.90
22984;DHT22;11658;48.908;9.140;2023-01-29T11:06:17;2.70;99.90
22984;DHT22;11658;48.908;9.140;2023-01-29T11:14:13;2.60;99.90
22984;DHT22;11658;48.908;9.140;2023-01-29T11:16:45;2.50;99.90
22984;DHT22;11658;48.908;9.140;2023-01-29T11:19:12;2.40;99.90
22984;DHT22;11658;48.908;9.140;2023-01-29T11:22:28;2.30;99.90
22984;DHT22;11658;48.908;9.140;2023-01-29T11:25:08;2.40;99.90
22984;DHT22;11658;48.908;9.140;2023-01-29T11:27:41;2.40;99.90
22984;DHT22;11658;48.908;9.140;2023-01-29T11:30:36;2.50;99.90
22984;DHT22;11658;48.908;9.140;2023-01-29T11:33:21;2.60;99.90
22984;DHT22;11658;48.908;9.140;2023-01-29T11:35:48;3.20;99.90
22984;DHT22;11658;48.908;9.140;2023-01-29T11:38:29;2.00;99.90
22984;DHT22;11658;48.908;9.140;2023-01-29T11:41:05;2.70;99.90
22984;DHT22;11658;48.908;9.140;2023-01-29T11:43:32;2.90;99.90
22984;DHT22;11658;48.908;9.140;2023-01-29T11:46:03;2.30;99.90
22984;DHT22;11658;48.908;9.140;2023-01-29T11:48:41;2.00;99.90
22984;DHT22;11658;48.908;9.140;2023-01-29T11:51:10;1.90;99.90
22984;DHT22;11658;48.908;9.140;2023-01-29T11:53:37;1.90;99.90
22984;DHT22;11658;48.908;9.140;2023-01-29T11:56:22;1.80;99.90
22984;DHT22;11658;48.908;9.140;2023-01-29T11:58:53;2.00;99.90
22984;DHT22;11658;48.908;9.140;2023-01-29T12:03:55;4.00;99.90
22984;DHT22;11658;48.908;9.140;2023-01-29T12:06:32;2.40;99.90
22984;DHT22;11658;48.908;9.140;2023-01-29T12:09:00;2.50;99.90
22984;DHT22;11658;48.908;9.140;2023-01-29T12:11:29;2.30;99.90
22984;DHT22;11658;48.908;9.140;2023-01-29T12:14:03;2.30;99.90
22984;DHT22;11658;48.908;9.140;2023-01-29T12:16:37;2.40;99.90
22984;DHT22;11658;48.908;9.140;2023-01-29T12:21:59;2.50;99.90
22984;DHT22;11658;48.908;9.140;2023-01-29T12:24:32;2.30;99.90
22984;DHT22;11658;48.908;9.140;2023-01-29T12:27:11;2.30;99.90
22984;DHT22;11658;48.908;9.140;2023-01-29T12:29:51;2.40;99.90
22984;DHT22;11658;48.908;9.140;2023-01-29T12:37:47;2.70;99.90
22984;DHT22;11658;48.908;9.140;2023-01-29T12:40:19;3.00;99.90
22984;DHT22;11658;48.908;9.140;2023-01-29T12:42:48;3.30;99.90
22984;DHT22;11658;48.908;9.140;2023-01-29T12:45:21;3.20;99.90
22984;DHT22;11658;48.908;9.140;2023-01-29T12:47:56;3.30;99.90
22984;DHT22;11658;48.908;9.140;2023-01-29T12:50:33;3.20;99.90
22984;DHT22;11658;48.908;9.140;2023-01-29T12:55:52;3.20;99.90
22984;DHT22;11658;48.908;9.140;2023-01-29T12:58:43;3.50;99.90
22984;DHT22;11658;48.908;9.140;2023-01-29T13:03:54;3.90;99.90
22984;DHT22;11658;48.908;9.140;2023-01-29T13:06:29;3.40;99.90
22984;DHT22;11658;48.908;9.140;2023-01-29T13:09:02;3.50;99.90
22984;DHT22;11658;48.908;9.140;2023-01-29T13:14:00;3.60;99.90
22984;DHT22;11658;48.908;9.140;2023-01-29T13:16:37;3.60;99.90
22984;DHT22;11658;48.908;9.140;2023-01-29T13:21:53;3.70;99.90
22984;DHT22;11658;48.908;9.140;2023-01-29T13:24:22;3.50;99.90
22984;DHT22;11658;48.908;9.140;2023-01-29T13:26:48;3.60;99.90
22984;DHT22;11658;48.908;9.140;2023-01-29T13:29:43;3.50;99.90
22984;DHT22;11658;48.908;9.140;2023-01-29T13:32:09;3.30;99.90
22984;DHT22;11658;48.908;9.140;2023-01-29T13:34:42;3.10;99.90
22984;DHT22;11658;48.908;9.140;2023-01-29T13:37:23;3.00;99.90
22984;DHT22;11658;48.908;9.140;2023-01-29T13:39:53;2.70;99.90
22984;DHT22;11658;48.908;9.140;2023-01-29T13:42:25;2.60;99.90
22984;DHT22;11658;48.908;9.140;2023-01-29T13:45:00;2.60;99.90
22984;DHT22;11658;48.908;9.140;2023-01-29T13:47:29;2.70;99.90
22984;DHT22;11658;48.908;9.140;2023-01-29T13:50:01;2.80;99.90
22984;DHT22;11658;48.908;9.140;2023-01-29T13:52:30;2.60;99.90
22984;DHT22;11658;48.908;9.140;2023-01-29T13:55:01;2.40;99.90
22984;DHT22;11658;48.908;9.140;2023-01-29T14:08:04;2.50;99.90
22984;DHT22;11658;48.908;9.140;2023-01-29T14:10:32;2.40;99.90
22984;DHT22;11658;48.908;9.140;2023-01-29T14:18:24;2.70;99.90
22984;DHT22;11658;48.908;9.140;2023-01-29T14:25:52;2.40;99.90
22984;DHT22;11658;48.908;9.140;2023-01-29T14:28:27;2.30;99.90
22984;DHT22;11658;48.908;9.140;2023-01-29T14:30:53;2.00;99.90
22984;DHT22;11658;48.908;9.140;2023-01-29T14:33:24;1.90;99.90
22984;DHT22;11658;48.908;9.140;2023-01-29T14:35:51;2.00;99.90
22984;DHT22;11658;48.908;9.140;2023-01-29T14:38:18;2.00;99.90
22984;DHT22;11658;48.908;9.140;2023-01-29T14:40:45;2.10;99.90
22984;DHT22;11658;48.908;9.140;2023-01-29T14:43:18;2.20;99.90
22984;DHT22;11658;48.908;9.140;2023-01-29T14:45:46;2.40;99.90
22984;DHT22;11658;48.908;9.140;2023-01-29T14:48:36;2.50;99.90
22984;DHT22;11658;48.908;9.140;2023-01-29T14:51:15;2.60;99.90
22984;DHT22;11658;48.908;9.140;2023-01-29T14:53:57;2.60;99.90
22984;DHT22;11658;48.908;9.140;2023-01-29T14:58:51;2.40;99.90
22984;DHT22;11658;48.908;9.140;2023-01-29T15:01:33;2.50;99.90
22984;DHT22;11658;48.908;9.140;2023-01-29T15:06:48;2.50;99.90
22984;DHT22;11658;48.908;9.140;2023-01-29T15:09:28;2.50;99.90
22984;DHT22;11658;48.908;9.140;2023-01-29T15:14:42;2.40;99.90
22984;DHT22;11658;48.908;9.140;2023-01-29T15:17:18;2.40;99.90
22984;DHT22;11658;48.908;9.140;2023-01-29T15:19:46;2.50;99.90
22984;DHT22;11658;48.908;9.140;2023-01-29T15:22:15;2.30;99.90
22984;DHT22;11658;48.908;9.140;2023-01-29T15:24:42;2.20;99.90
22984;DHT22;11658;48.908;9.140;2023-01-29T15:27:14;2.10;99.90
22984;DHT22;11658;48.908;9.140;2023-01-29T15:29:42;2.00;99.90
22984;DHT22;11658;48.908;9.140;2023-01-29T15:32:26;2.00;99.90
22984;DHT22;11658;48.908;9.140;2023-01-29T15:34:54;1.90;99.90
22984;DHT22;11658;48.908;9.140;2023-01-29T15:37:29;1.80;99.90
22984;DHT22;11658;48.908;9.140;2023-01-29T15:39:55;1.80;99.90
22984;DHT22;11658;48.908;9.140;2023-01-29T15:42:21;1.80;99.90
22984;DHT22;11658;48.908;9.140;2023-01-29T15:44:51;2.40;99.90
22984;DHT22;11658;48.908;9.140;2023-01-29T15:47:24;1.80;99.90
22984;DHT22;11658;48.908;9.140;2023-01-29T15:49:51;1.80;99.90
22984;DHT22;11658;48.908;9.140;2023-01-29T15:52:20;1.70;99.90
22984;DHT22;11658;48.908;9.140;2023-01-29T15:54:47;1.70;99.90
22984;DHT22;11658;48.908;9.140;2023-01-29T15:57:32;1.60;99.90
22984;DHT22;11658;48.908;9.140;2023-01-29T16:00:00;1.50;99.90
22984;DHT22;11658;48.908;9.140;2023-01-29T16:04:52;1.40;99.90
22984;DHT22;11658;48.908;9.140;2023-01-29T16:07:19;1.30;99.90
22984;DHT22;11658;48.908;9.140;2023-01-29T16:09:45;1.30;99.90
22984;DHT22;11658;48.908;9.140;2023-01-29T16:12:12;1.20;99.90
22984;DHT22;11658;48.908;9.140;2023-01-29T16:14:38;1.10;99.90
22984;DHT22;11658;48.908;9.140;2023-01-29T16:20:01;1.10;99.90
22984;DHT22;11658;48.908;9.140;2023-01-29T16:22:32;1.00;99.90
22984;DHT22;11658;48.908;9.140;2023-01-29T16:25:12;1.00;99.90
22984;DHT22;11658;48.908;9.140;2023-01-29T16:27:39;1.00;99.90
22984;DHT22;11658;48.908;9.140;2023-01-29T16:30:09;0.90;99.90
22984;DHT22;11658;48.908;9.140;2023-01-29T16:32:37;0.70;99.90
22984;DHT22;11658;48.908;9.140;2023-01-29T16:37:31;0.70;99.90
22984;DHT22;11658;48.908;9.140;2023-01-29T16:39:58;0.60;99.90
22984;DHT22;11658;48.908;9.140;2023-01-29T16:42:28;0.60;99.90
22984;DHT22;11658;48.908;9.140;2023-01-29T16:45:04;0.50;99.90
22984;DHT22;11658;48.908;9.140;2023-01-29T16:47:33;0.50;99.90
22984;DHT22;11658;48.908;9.140;2023-01-29T16:50:34;0.50;99.90
22984;DHT22;11658;48.908;9.140;2023-01-29T16:53:12;0.40;99.90
22984;DHT22;11658;48.908;9.140;2023-01-29T16:55:42;0.20;99.90
22984;DHT22;11658;48.908;9.140;2023-01-29T16:58:18;0.20;99.90
22984;DHT22;11658;48.908;9.140;2023-01-29T17:00:46;0.10;99.90
22984;DHT22;11658;48.908;9.140;2023-01-29T17:03:14;0.10;99.90
22984;DHT22;11658;48.908;9.140;2023-01-29T17:05:40;0.10;99.90
22984;DHT22;11658;48.908;9.140;2023-01-29T17:08:06;0.00;99.90
22984;DHT22;11658;48.908;9.140;2023-01-29T17:10:32;0.00;99.90
22984;DHT22;11658;48.908;9.140;2023-01-29T17:13:05;0.00;99.90
22984;DHT22;11658;48.908;9.140;2023-01-29T17:18:22;-0.10;99.90
22984;DHT22;11658;48.908;9.140;2023-01-29T17:20:48;-0.10;99.90
22984;DHT22;11658;48.908;9.140;2023-01-29T17:23:14;-0.10;99.90
22984;DHT22;11658;48.908;9.140;2023-01-29T17:25:40;-0.20;99.90
22984;DHT22;11658;48.908;9.140;2023-01-29T17:28:06;-0.30;99.90
22984;DHT22;11658;48.908;9.140;2023-01-29T17:30:34;-0.30;99.90
22984;DHT22;11658;48.908;9.140;2023-01-29T17:33:12;-0.30;99.90
22984;DHT22;11658;48.908;9.140;2023-01-29T17:35:39;-0.30;99.90
22984;DHT22;11658;48.908;9.140;2023-01-29T17:38:09;-0.40;99.90
22984;DHT22;11658;48.908;9.140;2023-01-29T17:43:15;-0.40;99.90
22984;DHT22;11658;48.908;9.140;2023-01-29T17:45:40;-0.40;99.90
22984;DHT22;11658;48.908;9.140;2023-01-29T17:48:13;-0.40;99.90
22984;DHT22;11658;48.908;9.140;2023-01-29T17:50:40;-0.50;99.90
22984;DHT22;11658;48.908;9.140;2023-01-29T17:53:07;-0.50;99.90
22984;DHT22;11658;48.908;9.140;2023-01-29T17:55:33;-0.50;99.90
22984;DHT22;11658;48.908;9.140;2023-01-29T17:57:59;-0.60;99.90
22984;DHT22;11658;48.908;9.140;2023-01-29T18:00:24;-0.60;99.90
22984;DHT22;11658;48.908;9.140;2023-01-29T18:02:50;-0.50;99.90
22984;DHT22;11658;48.908;9.140;2023-01-29T18:05:17;-0.50;99.90
22984;DHT22;11658;48.908;9.140;2023-01-29T18:07:44;-0.50;99.90
22984;DHT22;11658;48.908;9.140;2023-01-29T18:10:18;-0.60;99.90
22984;DHT22;11658;48.908;9.140;2023-01-29T18:12:45;-0.60;99.90
22984;DHT22;11658;48.908;9.140;2023-01-29T18:15:11;-0.60;99.90
22984;DHT22;11658;48.908;9.140;2023-01-29T18:17:37;-0.60;99.90
22984;DHT22;11658;48.908;9.140;2023-01-29T18:20:08;-0.60;99.90
22984;DHT22;11658;48.908;9.140;2023-01-29T18:22:39;-0.60;99.90
22984;DHT22;11658;48.908;9.140;2023-01-29T18:25:05;-0.60;99.90
22984;DHT22;11658;48.908;9.140;2023-01-29T18:27:32;-0.60;99.90
22984;DHT22;11658;48.908;9.140;2023-01-29T18:29:58;-0.60;99.90
22984;DHT22;11658;48.908;9.140;2023-01-29T18:32:23;-0.70;99.90
22984;DHT22;11658;48.908;9.140;2023-01-29T18:34:49;-0.70;99.90
22984;DHT22;11658;48.908;9.140;2023-01-29T18:37:14;-0.60;99.90
22984;DHT22;11658;48.908;9.140;2023-01-29T18:39:40;-0.60;99.90
22984;DHT22;11658;48.908;9.140;2023-01-29T18:42:06;-0.60;99.90
22984;DHT22;11658;48.908;9.140;2023-01-29T18:44:31;-0.60;99.90
22984;DHT22;11658;48.908;9.140;2023-01-29T18:46:57;-0.50;99.90
22984;DHT22;11658;48.908;9.140;2023-01-29T18:49:22;-0.40;99.90
22984;DHT22;11658;48.908;9.140;2023-01-29T18:51:48;-0.30;99.90
22984;DHT22;11658;48.908;9.140;2023-01-29T18:54:13;-0.40;99.90
22984;DHT22;11658;48.908;9.140;2023-01-29T18:56:39;-0.50;99.90
22984;DHT22;11658;48.908;9.140;2023-01-29T18:59:05;-0.60;99.90
22984;DHT22;11658;48.908;9.140;2023-01-29T19:01:30;-0.70;99.90
22984;DHT22;11658;48.908;9.140;2023-01-29T19:03:56;-0.70;99.90
22984;DHT22;11658;48.908;9.140;2023-01-29T19:06:24;-0.80;99.90
22984;DHT22;11658;48.908;9.140;2023-01-29T19:08:49;-0.80;99.90
22984;DHT22;11658;48.908;9.140;2023-01-29T19:11:15;-0.70;99.90
22984;DHT22;11658;48.908;9.140;2023-01-29T19:13:40;-0.80;99.90
22984;DHT22;11658;48.908;9.140;2023-01-29T19:16:10;-0.80;99.90
22984;DHT22;11658;48.908;9.140;2023-01-29T19:18:37;-0.90;99.90
22984;DHT22;11658;48.908;9.140;2023-01-29T19:21:11;-1.00;99.90
22984;DHT22;11658;48.908;9.140;2023-01-29T19:23:37;-1.00;99.90
22984;DHT22;11658;48.908;9.140;2023-01-29T19:26:04;-1.10;99.90
22984;DHT22;11658;48.908;9.140;2023-01-29T19:28:30;-1.20;99.90
22984;DHT22;11658;48.908;9.140;2023-01-29T19:30:57;-1.20;99.90
22984;DHT22;11658;48.908;9.140;2023-01-29T19:33:23;-1.20;99.90
22984;DHT22;11658;48.908;9.140;2023-01-29T19:35:49;-1.20;99.90
22984;DHT22;11658;48.908;9.140;2023-01-29T19:38:15;-1.30;99.90
22984;DHT22;11658;48.908;9.140;2023-01-29T19:40:48;-1.40;99.90
22984;DHT22;11658;48.908;9.140;2023-01-29T19:43:14;-1.40;99.90
22984;DHT22;11658;48.908;9.140;2023-01-29T19:45:42;-1.40;99.90
22984;DHT22;11658;48.908;9.140;2023-01-29T19:48:08;-1.40;99.90
22984;DHT22;11658;48.908;9.140;2023-01-29T19:50:34;-1.50;99.90
22984;DHT22;11658;48.908;9.140;2023-01-29T19:52:59;-1.50;99.90
22984;DHT22;11658;48.908;9.140;2023-01-29T19:55:25;-1.50;99.90
22984;DHT22;11658;48.908;9.140;2023-01-29T19:57:51;-1.60;99.90
22984;DHT22;11658;48.908;9.140;2023-01-29T20:00:18;-1.70;99.90
22984;DHT22;11658;48.908;9.140;2023-01-29T20:02:44;-1.70;99.90
22984;DHT22;11658;48.908;9.140;2023-01-29T20:05:10;-1.80;99.90
22984;DHT22;11658;48.908;9.140;2023-01-29T20:07:38;-1.80;99.90
22984;DHT22;11658;48.908;9.140;2023-01-29T20:10:05;-1.80;99.90
22984;DHT22;11658;48.908;9.140;2023-01-29T20:12:31;-1.90;99.90
22984;DHT22;11658;48.908;9.140;2023-01-29T20:14:57;-1.80;99.90
22984;DHT22;11658;48.908;9.140;2023-01-29T20:17:22;-1.60;99.90
22984;DHT22;11658;48.908;9.140;2023-01-29T20:19:48;-1.40;99.90
22984;DHT22;11658;48.908;9.140;2023-01-29T20:22:13;-1.20;99.90
22984;DHT22;11658;48.908;9.140;2023-01-29T20:24:39;-1.10;99.90
22984;DHT22;11658;48.908;9.140;2023-01-29T20:27:08;-1.00;99.90
22984;DHT22;11658;48.908;9.140;2023-01-29T20:29:34;-1.00;99.90
22984;DHT22;11658;48.908;9.140;2023-01-29T20:32:00;-1.00;99.90
22984;DHT22;11658;48.908;9.140;2023-01-29T20:34:26;-1.00;99.90
22984;DHT22;11658;48.908;9.140;2023-01-29T20:36:52;-1.00;99.90
22984;DHT22;11658;48.908;9.140;2023-01-29T20:39:18;-1.10;99.90
22984;DHT22;11658;48.908;9.140;2023-01-29T20:41:43;-1.10;99.90
22984;DHT22;11658;48.908;9.140;2023-01-29T20:44:09;-1.10;99.90
22984;DHT22;11658;48.908;9.140;2023-01-29T20:46:35;-1.10;99.90
22984;DHT22;11658;48.908;9.140;2023-01-29T20:49:00;-1.10;99.90
22984;DHT22;11658;48.908;9.140;2023-01-29T20:51:26;-1.10;99.90
22984;DHT22;11658;48.908;9.140;2023-01-29T20:53:53;-1.10;99.90
22984;DHT22;11658;48.908;9.140;2023-01-29T20:56:20;-1.10;99.90
22984;DHT22;11658;48.908;9.140;2023-01-29T20:58:45;-1.10;99.90
22984;DHT22;11658;48.908;9.140;2023-01-29T21:01:14;-1.10;99.90
22984;DHT22;11658;48.908;9.140;2023-01-29T21:03:40;-1.00;99.90
22984;DHT22;11658;48.908;9.140;2023-01-29T21:06:07;-1.00;99.90
22984;DHT22;11658;48.908;9.140;2023-01-29T21:08:33;-1.10;99.90
22984;DHT22;11658;48.908;9.140;2023-01-29T21:11:00;-1.00;99.90
22984;DHT22;11658;48.908;9.140;2023-01-29T21:13:26;-1.10;99.90
22984;DHT22;11658;48.908;9.140;2023-01-29T21:15:52;-1.20;99.90
22984;DHT22;11658;48.908;9.140;2023-01-29T21:18:17;-1.20;99.90
22984;DHT22;11658;48.908;9.140;2023-01-29T21:20:44;-1.30;99.90
22984;DHT22;11658;48.908;9.140;2023-01-29T21:23:09;-1.40;99.90
22984;DHT22;11658;48.908;9.140;2023-01-29T21:25:35;-1.40;99.90
22984;DHT22;11658;48.908;9.140;2023-01-29T21:28:03;-1.40;99.90
22984;DHT22;11658;48.908;9.140;2023-01-29T21:30:29;-1.50;99.90
22984;DHT22;11658;48.908;9.140;2023-01-29T21:32:58;-1.50;99.90
22984;DHT22;11658;48.908;9.140;2023-01-29T21:35:24;-1.50;99.90
22984;DHT22;11658;48.908;9.140;2023-01-29T21:37:50;-1.60;99.90
22984;DHT22;11658;48.908;9.140;2023-01-29T21:40:19;-1.60;99.90
22984;DHT22;11658;48.908;9.140;2023-01-29T21:42:50;-1.70;99.90
22984;DHT22;11658;48.908;9.140;2023-01-29T21:45:35;-1.80;99.90
22984;DHT22;11658;48.908;9.140;2023-01-29T21:48:00;-1.80;99.90
22984;DHT22;11658;48.908;9.140;2023-01-29T21:50:27;-1.80;99.90
22984;DHT22;11658;48.908;9.140;2023-01-29T21:52:52;-1.80;99.90
22984;DHT22;11658;48.908;9.140;2023-01-29T21:55:18;-1.80;99.90
22984;DHT22;11658;48.908;9.140;2023-01-29T21:57:43;-1.80;99.90
22984;DHT22;11658;48.908;9.140;2023-01-29T22:00:11;-1.90;99.90
